sensor_id;sensor_type;location;lat;lon;timestamp;temperature;humidity
64961;SHT31;51487;52.266;10.542;2023-11-21T00:01:35;9.41;95.30
64961;SHT31;51487;52.266;10.542;2023-11-21T00:04:01;9.31;95.10
64961;SHT31;51487;52.266;10.542;2023-11-21T00:06:27;9.25;94.27
64961;SHT31;51487;52.266;10.542;2023-11-21T00:08:52;9.36;94.74
64961;SHT31;51487;52.266;10.542;2023-11-21T00:11:18;9.42;93.97
64961;SHT31;51487;52.266;10.542;2023-11-21T00:13:43;9.36;93.60
64961;SHT31;51487;52.266;10.542;2023-11-21T00:16:09;9.38;93.70
64961;SHT31;51487;52.266;10.542;2023-11-21T00:18:34;9.24;93.94
64961;SHT31;51487;52.266;10.542;2023-11-21T00:21:01;9.17;94.65
64961;SHT31;51487;52.266;10.542;2023-11-21T00:23:26;9.24;94.17
64961;SHT31;51487;52.266;10.542;2023-11-21T00:25:52;9.32;94.08
64961;SHT31;51487;52.266;10.542;2023-11-21T00:28:17;9.25;94.47
64961;SHT31;51487;52.266;10.542;2023-11-21T00:30:43;9.34;93.74
64961;SHT31;51487;52.266;10.542;2023-11-21T00:33:08;9.10;94.55
64961;SHT31;51487;52.266;10.542;2023-11-21T00:35:34;9.08;94.85
64961;SHT31;51487;52.266;10.542;2023-11-21T00:37:59;9.11;94.81
64961;SHT31;51487;52.266;10.542;2023-11-21T00:40:25;9.06;95.37
64961;SHT31;51487;52.266;10.542;2023-11-21T00:42:50;9.13;94.86
64961;SHT31;51487;52.266;10.542;2023-11-21T00:45:16;9.13;94.40
64961;SHT31;51487;52.266;10.542;2023-11-21T00:47:41;9.13;94.74
64961;SHT31;51487;52.266;10.542;2023-11-21T00:50:08;8.96;95.30
64961;SHT31;51487;52.266;10.542;2023-11-21T00:52:34;8.81;95.92
64961;SHT31;51487;52.266;10.542;2023-11-21T00:55:02;8.88;95.92
64961;SHT31;51487;52.266;10.542;2023-11-21T00:57:28;8.94;95.75
64961;SHT31;51487;52.266;10.542;2023-11-21T00:59:54;9.10;95.14
64961;SHT31;51487;52.266;10.542;2023-11-21T01:02:20;9.07;95.53
64961;SHT31;51487;52.266;10.542;2023-11-21T01:04:45;8.96;95.21
64961;SHT31;51487;52.266;10.542;2023-11-21T01:07:13;8.96;95.53
64961;SHT31;51487;52.266;10.542;2023-11-21T01:09:38;9.00;95.83
64961;SHT31;51487;52.266;10.542;2023-11-21T01:12:04;8.88;96.14
64961;SHT31;51487;52.266;10.542;2023-11-21T01:14:30;8.93;96.10
64961;SHT31;51487;52.266;10.542;2023-11-21T01:16:55;8.88;95.93
64961;SHT31;51487;52.266;10.542;2023-11-21T01:19:21;8.80;96.26
64961;SHT31;51487;52.266;10.542;2023-11-21T01:21:47;8.86;96.44
64961;SHT31;51487;52.266;10.542;2023-11-21T01:24:12;8.91;96.13
64961;SHT31;51487;52.266;10.542;2023-11-21T01:26:38;8.84;96.29
64961;SHT31;51487;52.266;10.542;2023-11-21T01:29:03;8.86;96.55
64961;SHT31;51487;52.266;10.542;2023-11-21T01:31:29;8.76;97.10
64961;SHT31;51487;52.266;10.542;2023-11-21T01:33:56;8.70;97.12
64961;SHT31;51487;52.266;10.542;2023-11-21T01:36:21;8.77;97.47
64961;SHT31;51487;52.266;10.542;2023-11-21T01:38:47;8.84;97.24
64961;SHT31;51487;52.266;10.542;2023-11-21T01:41:15;8.84;96.64
64961;SHT31;51487;52.266;10.542;2023-11-21T01:43:41;8.91;96.15
64961;SHT31;51487;52.266;10.542;2023-11-21T01:46:08;8.86;96.27
64961;SHT31;51487;52.266;10.542;2023-11-21T01:48:34;9.00;95.97
64961;SHT31;51487;52.266;10.542;2023-11-21T01:51:01;8.86;96.83
64961;SHT31;51487;52.266;10.542;2023-11-21T01:53:27;8.94;96.33
64961;SHT31;51487;52.266;10.542;2023-11-21T01:55:55;8.90;96.47
64961;SHT31;51487;52.266;10.542;2023-11-21T01:58:22;8.93;96.62
64961;SHT31;51487;52.266;10.542;2023-11-21T02:00:48;8.81;97.33
64961;SHT31;51487;52.266;10.542;2023-11-21T02:03:16;8.84;97.07
64961;SHT31;51487;52.266;10.542;2023-11-21T02:05:42;8.94;96.60
64961;SHT31;51487;52.266;10.542;2023-11-21T02:08:08;8.87;96.80
64961;SHT31;51487;52.266;10.542;2023-11-21T02:10:35;8.93;96.82
64961;SHT31;51487;52.266;10.542;2023-11-21T02:13:02;8.96;97.15
64961;SHT31;51487;52.266;10.542;2023-11-21T02:15:29;8.91;96.88
64961;SHT31;51487;52.266;10.542;2023-11-21T02:17:55;8.99;96.26
64961;SHT31;51487;52.266;10.542;2023-11-21T02:20:24;8.87;97.31
64961;SHT31;51487;52.266;10.542;2023-11-21T02:22:56;8.87;96.84
64961;SHT31;51487;52.266;10.542;2023-11-21T02:25:30;8.83;96.86
64961;SHT31;51487;52.266;10.542;2023-11-21T02:27:59;8.93;97.03
64961;SHT31;51487;52.266;10.542;2023-11-21T02:30:25;8.83;97.49
64961;SHT31;51487;52.266;10.542;2023-11-21T02:32:53;8.72;97.63
64961;SHT31;51487;52.266;10.542;2023-11-21T02:35:20;8.79;97.17
64961;SHT31;51487;52.266;10.542;2023-11-21T02:37:49;8.79;97.17
64961;SHT31;51487;52.266;10.542;2023-11-21T02:40:15;8.90;97.15
64961;SHT31;51487;52.266;10.542;2023-11-21T02:42:48;8.96;96.99
64961;SHT31;51487;52.266;10.542;2023-11-21T02:45:17;8.94;97.24
64961;SHT31;51487;52.266;10.542;2023-11-21T02:47:44;9.00;96.66
64961;SHT31;51487;52.266;10.542;2023-11-21T02:50:10;8.93;96.92
64961;SHT31;51487;52.266;10.542;2023-11-21T02:52:36;8.96;97.06
64961;SHT31;51487;52.266;10.542;2023-11-21T02:55:03;9.01;97.31
64961;SHT31;51487;52.266;10.542;2023-11-21T02:57:28;9.04;96.99
64961;SHT31;51487;52.266;10.542;2023-11-21T02:59:54;9.04;96.75
64961;SHT31;51487;52.266;10.542;2023-11-21T03:02:20;8.96;97.11
64961;SHT31;51487;52.266;10.542;2023-11-21T03:04:46;9.03;96.78
64961;SHT31;51487;52.266;10.542;2023-11-21T03:07:15;8.96;97.01
64961;SHT31;51487;52.266;10.542;2023-11-21T03:09:40;9.01;96.90
64961;SHT31;51487;52.266;10.542;2023-11-21T03:12:06;8.99;97.80
64961;SHT31;51487;52.266;10.542;2023-11-21T03:14:32;9.13;97.16
64961;SHT31;51487;52.266;10.542;2023-11-21T03:16:57;8.99;96.96
64961;SHT31;51487;52.266;10.542;2023-11-21T03:19:23;9.03;96.69
64961;SHT31;51487;52.266;10.542;2023-11-21T03:21:49;9.11;96.97
64961;SHT31;51487;52.266;10.542;2023-11-21T03:24:14;9.01;97.33
64961;SHT31;51487;52.266;10.542;2023-11-21T03:26:45;9.04;97.14
64961;SHT31;51487;52.266;10.542;2023-11-21T03:29:12;9.01;97.29
64961;SHT31;51487;52.266;10.542;2023-11-21T03:31:38;9.04;97.81
64961;SHT31;51487;52.266;10.542;2023-11-21T03:34:03;8.94;97.95
64961;SHT31;51487;52.266;10.542;2023-11-21T03:36:29;8.86;98.30
64961;SHT31;51487;52.266;10.542;2023-11-21T03:38:54;9.06;98.06
64961;SHT31;51487;52.266;10.542;2023-11-21T03:41:21;9.13;98.07
64961;SHT31;51487;52.266;10.542;2023-11-21T03:43:46;9.01;98.04
64961;SHT31;51487;52.266;10.542;2023-11-21T03:46:12;8.90;98.29
64961;SHT31;51487;52.266;10.542;2023-11-21T03:48:38;9.00;98.22
64961;SHT31;51487;52.266;10.542;2023-11-21T03:51:04;9.04;98.09
64961;SHT31;51487;52.266;10.542;2023-11-21T03:53:29;8.94;98.25
64961;SHT31;51487;52.266;10.542;2023-11-21T03:55:55;9.03;98.51
64961;SHT31;51487;52.266;10.542;2023-11-21T03:58:20;9.08;98.28
64961;SHT31;51487;52.266;10.542;2023-11-21T04:00:47;9.06;98.41
64961;SHT31;51487;52.266;10.542;2023-11-21T04:03:14;8.99;98.41
64961;SHT31;51487;52.266;10.542;2023-11-21T04:05:40;8.96;98.13
64961;SHT31;51487;52.266;10.542;2023-11-21T04:08:06;9.14;98.12
64961;SHT31;51487;52.266;10.542;2023-11-21T04:10:32;9.15;98.23
64961;SHT31;51487;52.266;10.542;2023-11-21T04:12:58;9.14;98.19
64961;SHT31;51487;52.266;10.542;2023-11-21T04:15:24;9.15;97.83
64961;SHT31;51487;52.266;10.542;2023-11-21T04:17:50;9.21;97.88
64961;SHT31;51487;52.266;10.542;2023-11-21T04:20:15;9.06;98.33
64961;SHT31;51487;52.266;10.542;2023-11-21T04:22:43;9.15;98.41
64961;SHT31;51487;52.266;10.542;2023-11-21T04:25:11;9.18;98.06
64961;SHT31;51487;52.266;10.542;2023-11-21T04:27:42;9.13;98.10
64961;SHT31;51487;52.266;10.542;2023-11-21T04:30:14;9.14;98.20
64961;SHT31;51487;52.266;10.542;2023-11-21T04:32:40;9.04;98.40
64961;SHT31;51487;52.266;10.542;2023-11-21T04:35:06;9.06;98.83
64961;SHT31;51487;52.266;10.542;2023-11-21T04:37:31;9.03;98.29
64961;SHT31;51487;52.266;10.542;2023-11-21T04:39:57;9.13;98.19
64961;SHT31;51487;52.266;10.542;2023-11-21T04:42:23;9.14;98.28
64961;SHT31;51487;52.266;10.542;2023-11-21T04:44:49;9.08;98.55
64961;SHT31;51487;52.266;10.542;2023-11-21T04:47:15;9.07;98.35
64961;SHT31;51487;52.266;10.542;2023-11-21T04:49:43;9.17;98.22
64961;SHT31;51487;52.266;10.542;2023-11-21T04:52:09;9.27;98.29
64961;SHT31;51487;52.266;10.542;2023-11-21T04:54:35;9.11;98.60
64961;SHT31;51487;52.266;10.542;2023-11-21T04:57:01;9.17;98.67
64961;SHT31;51487;52.266;10.542;2023-11-21T04:59:27;9.11;98.81
64961;SHT31;51487;52.266;10.542;2023-11-21T05:01:53;9.24;98.91
64961;SHT31;51487;52.266;10.542;2023-11-21T05:04:20;9.15;98.91
64961;SHT31;51487;52.266;10.542;2023-11-21T05:06:47;9.08;99.44
64961;SHT31;51487;52.266;10.542;2023-11-21T05:09:13;9.15;99.56
64961;SHT31;51487;52.266;10.542;2023-11-21T05:11:39;9.07;99.99
64961;SHT31;51487;52.266;10.542;2023-11-21T05:14:06;8.83;99.99
64961;SHT31;51487;52.266;10.542;2023-11-21T05:16:32;9.00;99.99
64961;SHT31;51487;52.266;10.542;2023-11-21T05:18:57;9.06;99.99
64961;SHT31;51487;52.266;10.542;2023-11-21T05:21:29;9.08;99.99
64961;SHT31;51487;52.266;10.542;2023-11-21T05:23:57;9.01;99.99
64961;SHT31;51487;52.266;10.542;2023-11-21T05:26:22;9.01;99.73
64961;SHT31;51487;52.266;10.542;2023-11-21T05:28:48;9.14;99.80
64961;SHT31;51487;52.266;10.542;2023-11-21T05:31:13;9.01;99.99
64961;SHT31;51487;52.266;10.542;2023-11-21T05:33:39;9.00;99.99
64961;SHT31;51487;52.266;10.542;2023-11-21T05:36:05;9.04;99.99
64961;SHT31;51487;52.266;10.542;2023-11-21T05:38:33;9.08;99.99
64961;SHT31;51487;52.266;10.542;2023-11-21T05:40:59;9.11;99.89
64961;SHT31;51487;52.266;10.542;2023-11-21T05:43:24;9.03;99.67
64961;SHT31;51487;52.266;10.542;2023-11-21T05:45:50;8.99;99.99
64961;SHT31;51487;52.266;10.542;2023-11-21T05:48:15;8.76;99.99
64961;SHT31;51487;52.266;10.542;2023-11-21T05:50:41;8.86;99.99
64961;SHT31;51487;52.266;10.542;2023-11-21T05:53:06;8.90;99.99
64961;SHT31;51487;52.266;10.542;2023-11-21T05:55:32;8.93;99.99
64961;SHT31;51487;52.266;10.542;2023-11-21T05:57:58;8.91;99.99
64961;SHT31;51487;52.266;10.542;2023-11-21T06:00:24;8.83;99.99
64961;SHT31;51487;52.266;10.542;2023-11-21T06:02:53;8.77;99.99
64961;SHT31;51487;52.266;10.542;2023-11-21T06:05:20;8.70;99.99
64961;SHT31;51487;52.266;10.542;2023-11-21T06:07:49;8.66;99.99
64961;SHT31;51487;52.266;10.542;2023-11-21T06:10:15;8.56;99.99
64961;SHT31;51487;52.266;10.542;2023-11-21T06:12:43;8.50;99.99
64961;SHT31;51487;52.266;10.542;2023-11-21T06:15:10;8.62;99.99
64961;SHT31;51487;52.266;10.542;2023-11-21T06:17:40;8.65;99.99
64961;SHT31;51487;52.266;10.542;2023-11-21T06:20:07;8.55;99.99
64961;SHT31;51487;52.266;10.542;2023-11-21T06:22:41;8.52;99.99
64961;SHT31;51487;52.266;10.542;2023-11-21T06:25:08;8.32;99.99
64961;SHT31;51487;52.266;10.542;2023-11-21T06:27:40;8.29;99.99
64961;SHT31;51487;52.266;10.542;2023-11-21T06:30:07;8.29;99.99
64961;SHT31;51487;52.266;10.542;2023-11-21T06:32:38;8.20;99.99
64961;SHT31;51487;52.266;10.542;2023-11-21T06:35:06;8.17;99.99
64961;SHT31;51487;52.266;10.542;2023-11-21T06:37:32;8.12;99.99
64961;SHT31;51487;52.266;10.542;2023-11-21T06:40:00;8.14;99.99
64961;SHT31;51487;52.266;10.542;2023-11-21T06:42:26;8.09;99.99
64961;SHT31;51487;52.266;10.542;2023-11-21T06:44:52;7.97;99.99
64961;SHT31;51487;52.266;10.542;2023-11-21T06:47:19;7.88;99.99
64961;SHT31;51487;52.266;10.542;2023-11-21T06:49:51;7.87;99.99
64961;SHT31;51487;52.266;10.542;2023-11-21T06:52:17;7.74;99.99
64961;SHT31;51487;52.266;10.542;2023-11-21T06:54:43;7.70;99.99
64961;SHT31;51487;52.266;10.542;2023-11-21T06:57:09;7.55;99.99
64961;SHT31;51487;52.266;10.542;2023-11-21T06:59:34;7.39;99.99
64961;SHT31;51487;52.266;10.542;2023-11-21T07:02:00;7.33;99.99
64961;SHT31;51487;52.266;10.542;2023-11-21T07:04:26;7.35;99.99
64961;SHT31;51487;52.266;10.542;2023-11-21T07:06:53;7.33;99.99
64961;SHT31;51487;52.266;10.542;2023-11-21T07:09:19;7.11;99.99
64961;SHT31;51487;52.266;10.542;2023-11-21T07:11:50;7.20;99.99
64961;SHT31;51487;52.266;10.542;2023-11-21T07:14:15;7.15;99.99
64961;SHT31;51487;52.266;10.542;2023-11-21T07:16:42;7.12;99.99
64961;SHT31;51487;52.266;10.542;2023-11-21T07:19:08;7.09;99.99
64961;SHT31;51487;52.266;10.542;2023-11-21T07:21:36;7.29;99.99
64961;SHT31;51487;52.266;10.542;2023-11-21T07:24:03;7.36;99.71
64961;SHT31;51487;52.266;10.542;2023-11-21T07:26:31;7.46;99.32
64961;SHT31;51487;52.266;10.542;2023-11-21T07:28:58;7.46;99.06
64961;SHT31;51487;52.266;10.542;2023-11-21T07:31:24;7.45;98.94
64961;SHT31;51487;52.266;10.542;2023-11-21T07:33:50;7.29;99.48
64961;SHT31;51487;52.266;10.542;2023-11-21T07:36:17;7.32;99.61
64961;SHT31;51487;52.266;10.542;2023-11-21T07:38:49;7.38;99.59
64961;SHT31;51487;52.266;10.542;2023-11-21T07:41:16;7.28;99.99
64961;SHT31;51487;52.266;10.542;2023-11-21T07:43:46;7.33;99.99
64961;SHT31;51487;52.266;10.542;2023-11-21T07:46:13;7.35;99.99
64961;SHT31;51487;52.266;10.542;2023-11-21T07:48:40;7.42;99.90
64961;SHT31;51487;52.266;10.542;2023-11-21T07:51:08;7.35;99.63
64961;SHT31;51487;52.266;10.542;2023-11-21T07:53:34;7.33;99.38
64961;SHT31;51487;52.266;10.542;2023-11-21T07:56:08;7.30;99.29
64961;SHT31;51487;52.266;10.542;2023-11-21T07:58:35;7.38;98.89
64961;SHT31;51487;52.266;10.542;2023-11-21T08:01:02;7.28;98.64
64961;SHT31;51487;52.266;10.542;2023-11-21T08:03:28;7.28;98.98
64961;SHT31;51487;52.266;10.542;2023-11-21T08:05:58;7.20;99.06
64961;SHT31;51487;52.266;10.542;2023-11-21T08:08:24;7.11;99.26
64961;SHT31;51487;52.266;10.542;2023-11-21T08:10:51;7.09;98.81
64961;SHT31;51487;52.266;10.542;2023-11-21T08:13:23;7.07;98.31
64961;SHT31;51487;52.266;10.542;2023-11-21T08:15:49;6.98;97.81
64961;SHT31;51487;52.266;10.542;2023-11-21T08:18:15;7.12;96.47
64961;SHT31;51487;52.266;10.542;2023-11-21T08:20:41;7.19;95.46
64961;SHT31;51487;52.266;10.542;2023-11-21T08:23:07;7.05;95.72
64961;SHT31;51487;52.266;10.542;2023-11-21T08:25:32;7.18;95.78
64961;SHT31;51487;52.266;10.542;2023-11-21T08:28:00;7.32;95.05
64961;SHT31;51487;52.266;10.542;2023-11-21T08:30:25;7.25;95.14
64961;SHT31;51487;52.266;10.542;2023-11-21T08:32:54;7.33;94.99
64961;SHT31;51487;52.266;10.542;2023-11-21T08:35:24;7.20;95.64
64961;SHT31;51487;52.266;10.542;2023-11-21T08:37:53;7.33;95.43
64961;SHT31;51487;52.266;10.542;2023-11-21T08:40:19;7.45;95.21
64961;SHT31;51487;52.266;10.542;2023-11-21T08:42:46;7.32;95.39
64961;SHT31;51487;52.266;10.542;2023-11-21T08:45:12;7.39;94.94
64961;SHT31;51487;52.266;10.542;2023-11-21T08:47:39;7.47;94.54
64961;SHT31;51487;52.266;10.542;2023-11-21T08:50:06;7.33;93.89
64961;SHT31;51487;52.266;10.542;2023-11-21T08:52:34;7.45;93.25
64961;SHT31;51487;52.266;10.542;2023-11-21T08:55:00;7.40;93.29
64961;SHT31;51487;52.266;10.542;2023-11-21T08:57:34;7.43;93.11
64961;SHT31;51487;52.266;10.542;2023-11-21T09:00:01;7.50;92.33
64961;SHT31;51487;52.266;10.542;2023-11-21T09:02:27;7.52;90.34
64961;SHT31;51487;52.266;10.542;2023-11-21T09:04:52;7.46;90.77
64961;SHT31;51487;52.266;10.542;2023-11-21T09:07:19;7.45;90.97
64961;SHT31;51487;52.266;10.542;2023-11-21T09:09:46;7.57;90.58
64961;SHT31;51487;52.266;10.542;2023-11-21T09:12:13;7.46;91.29
64961;SHT31;51487;52.266;10.542;2023-11-21T09:14:38;7.62;90.37
64961;SHT31;51487;52.266;10.542;2023-11-21T09:17:05;7.67;90.74
64961;SHT31;51487;52.266;10.542;2023-11-21T09:19:37;7.57;88.24
64961;SHT31;51487;52.266;10.542;2023-11-21T09:22:03;7.50;88.12
64961;SHT31;51487;52.266;10.542;2023-11-21T09:24:31;7.46;88.22
64961;SHT31;51487;52.266;10.542;2023-11-21T09:26:57;7.52;87.96
64961;SHT31;51487;52.266;10.542;2023-11-21T09:29:22;7.46;87.56
64961;SHT31;51487;52.266;10.542;2023-11-21T09:31:48;7.42;87.76
64961;SHT31;51487;52.266;10.542;2023-11-21T09:34:16;7.55;87.79
64961;SHT31;51487;52.266;10.542;2023-11-21T09:36:45;7.59;87.79
64961;SHT31;51487;52.266;10.542;2023-11-21T09:39:11;7.45;86.88
64961;SHT31;51487;52.266;10.542;2023-11-21T09:41:52;7.46;87.65
64961;SHT31;51487;52.266;10.542;2023-11-21T09:44:40;7.36;87.51
64961;SHT31;51487;52.266;10.542;2023-11-21T09:47:14;7.35;87.55
64961;SHT31;51487;52.266;10.542;2023-11-21T09:49:46;7.40;88.10
64961;SHT31;51487;52.266;10.542;2023-11-21T09:52:22;7.29;89.17
64961;SHT31;51487;52.266;10.542;2023-11-21T09:54:52;7.42;89.01
64961;SHT31;51487;52.266;10.542;2023-11-21T09:57:20;7.49;88.95
64961;SHT31;51487;52.266;10.542;2023-11-21T09:59:54;7.56;88.40
64961;SHT31;51487;52.266;10.542;2023-11-21T10:02:28;7.59;88.83
64961;SHT31;51487;52.266;10.542;2023-11-21T10:04:56;7.55;88.24
64961;SHT31;51487;52.266;10.542;2023-11-21T10:07:23;7.66;87.55
64961;SHT31;51487;52.266;10.542;2023-11-21T10:09:51;7.76;88.02
64961;SHT31;51487;52.266;10.542;2023-11-21T10:12:17;7.77;87.47
64961;SHT31;51487;52.266;10.542;2023-11-21T10:14:48;7.84;87.80
64961;SHT31;51487;52.266;10.542;2023-11-21T10:17:15;7.91;86.42
64961;SHT31;51487;52.266;10.542;2023-11-21T10:19:48;7.76;86.25
64961;SHT31;51487;52.266;10.542;2023-11-21T10:22:15;7.71;86.17
64961;SHT31;51487;52.266;10.542;2023-11-21T10:24:41;7.66;85.69
64961;SHT31;51487;52.266;10.542;2023-11-21T10:27:09;7.46;86.40
64961;SHT31;51487;52.266;10.542;2023-11-21T10:29:34;7.53;87.50
64961;SHT31;51487;52.266;10.542;2023-11-21T10:32:02;7.65;87.85
64961;SHT31;51487;52.266;10.542;2023-11-21T10:34:29;7.66;86.84
64961;SHT31;51487;52.266;10.542;2023-11-21T10:36:54;7.70;85.65
64961;SHT31;51487;52.266;10.542;2023-11-21T10:39:24;7.67;85.68
64961;SHT31;51487;52.266;10.542;2023-11-21T10:41:54;7.71;86.48
64961;SHT31;51487;52.266;10.542;2023-11-21T10:44:20;7.76;85.86
64961;SHT31;51487;52.266;10.542;2023-11-21T10:47:00;7.70;84.64
64961;SHT31;51487;52.266;10.542;2023-11-21T10:49:28;7.62;86.35
64961;SHT31;51487;52.266;10.542;2023-11-21T10:51:54;7.81;84.70
64961;SHT31;51487;52.266;10.542;2023-11-21T10:54:25;7.95;84.45
64961;SHT31;51487;52.266;10.542;2023-11-21T10:56:59;7.94;84.88
64961;SHT31;51487;52.266;10.542;2023-11-21T10:59:29;8.02;84.97
64961;SHT31;51487;52.266;10.542;2023-11-21T11:01:58;8.02;85.29
64961;SHT31;51487;52.266;10.542;2023-11-21T11:04:27;8.01;84.70
64961;SHT31;51487;52.266;10.542;2023-11-21T11:07:03;8.14;84.09
64961;SHT31;51487;52.266;10.542;2023-11-21T11:09:31;8.26;83.92
64961;SHT31;51487;52.266;10.542;2023-11-21T11:12:02;8.15;84.04
64961;SHT31;51487;52.266;10.542;2023-11-21T11:14:28;8.09;84.57
64961;SHT31;51487;52.266;10.542;2023-11-21T11:16:54;8.12;83.94
64961;SHT31;51487;52.266;10.542;2023-11-21T11:19:21;8.18;85.12
64961;SHT31;51487;52.266;10.542;2023-11-21T11:22:03;8.15;83.93
64961;SHT31;51487;52.266;10.542;2023-11-21T11:30:47;8.09;84.21
64961;SHT31;51487;52.266;10.542;2023-11-21T11:33:41;8.09;84.87
64961;SHT31;51487;52.266;10.542;2023-11-21T11:38:46;8.09;84.88
64961;SHT31;51487;52.266;10.542;2023-11-21T11:41:31;8.21;85.21
64961;SHT31;51487;52.266;10.542;2023-11-21T11:44:00;8.14;85.36
64961;SHT31;51487;52.266;10.542;2023-11-21T11:46:42;8.26;84.79
64961;SHT31;51487;52.266;10.542;2023-11-21T11:49:08;8.28;84.06
64961;SHT31;51487;52.266;10.542;2023-11-21T11:51:34;8.21;83.27
64961;SHT31;51487;52.266;10.542;2023-11-21T11:54:01;8.09;83.16
64961;SHT31;51487;52.266;10.542;2023-11-21T11:56:34;8.08;83.59
64961;SHT31;51487;52.266;10.542;2023-11-21T11:59:07;8.09;83.16
64961;SHT31;51487;52.266;10.542;2023-11-21T12:01:35;8.05;83.37
64961;SHT31;51487;52.266;10.542;2023-11-21T12:06:52;8.05;83.51
64961;SHT31;51487;52.266;10.542;2023-11-21T12:09:23;8.25;83.32
64961;SHT31;51487;52.266;10.542;2023-11-21T12:11:50;8.09;85.09
64961;SHT31;51487;52.266;10.542;2023-11-21T12:14:16;8.28;83.78
64961;SHT31;51487;52.266;10.542;2023-11-21T12:16:43;8.32;82.88
64961;SHT31;51487;52.266;10.542;2023-11-21T12:19:11;8.31;82.09
64961;SHT31;51487;52.266;10.542;2023-11-21T12:21:36;8.12;82.82
64961;SHT31;51487;52.266;10.542;2023-11-21T12:24:03;8.22;82.96
64961;SHT31;51487;52.266;10.542;2023-11-21T12:26:29;8.21;82.09
64961;SHT31;51487;52.266;10.542;2023-11-21T12:28:55;8.18;81.95
64961;SHT31;51487;52.266;10.542;2023-11-21T12:31:23;8.21;82.29
64961;SHT31;51487;52.266;10.542;2023-11-21T12:33:49;8.12;83.16
64961;SHT31;51487;52.266;10.542;2023-11-21T12:36:16;8.22;82.65
64961;SHT31;51487;52.266;10.542;2023-11-21T12:38:42;8.11;82.54
64961;SHT31;51487;52.266;10.542;2023-11-21T12:41:10;8.01;83.05
64961;SHT31;51487;52.266;10.542;2023-11-21T12:43:36;8.09;82.68
64961;SHT31;51487;52.266;10.542;2023-11-21T12:46:10;7.98;82.69
64961;SHT31;51487;52.266;10.542;2023-11-21T12:48:41;7.97;82.59
64961;SHT31;51487;52.266;10.542;2023-11-21T12:51:11;7.70;84.49
64961;SHT31;51487;52.266;10.542;2023-11-21T12:53:38;7.77;83.61
64961;SHT31;51487;52.266;10.542;2023-11-21T12:56:11;7.90;82.68
64961;SHT31;51487;52.266;10.542;2023-11-21T12:58:44;7.88;82.88
64961;SHT31;51487;52.266;10.542;2023-11-21T13:01:14;7.86;82.85
64961;SHT31;51487;52.266;10.542;2023-11-21T13:03:46;7.71;82.75
64961;SHT31;51487;52.266;10.542;2023-11-21T13:06:15;7.77;82.01
64961;SHT31;51487;52.266;10.542;2023-11-21T13:08:41;7.77;82.20
64961;SHT31;51487;52.266;10.542;2023-11-21T13:11:11;7.83;81.73
64961;SHT31;51487;52.266;10.542;2023-11-21T13:13:40;7.91;81.90
64961;SHT31;51487;52.266;10.542;2023-11-21T13:16:07;7.93;81.42
64961;SHT31;51487;52.266;10.542;2023-11-21T13:18:33;7.93;81.17
64961;SHT31;51487;52.266;10.542;2023-11-21T13:21:03;7.73;81.83
64961;SHT31;51487;52.266;10.542;2023-11-21T13:23:35;7.86;81.60
64961;SHT31;51487;52.266;10.542;2023-11-21T13:26:02;7.81;81.86
64961;SHT31;51487;52.266;10.542;2023-11-21T13:28:32;7.98;81.58
64961;SHT31;51487;52.266;10.542;2023-11-21T13:31:00;7.88;81.03
64961;SHT31;51487;52.266;10.542;2023-11-21T13:33:35;7.80;80.96
64961;SHT31;51487;52.266;10.542;2023-11-21T13:36:05;7.70;81.62
64961;SHT31;51487;52.266;10.542;2023-11-21T13:38:33;7.67;82.04
64961;SHT31;51487;52.266;10.542;2023-11-21T13:41:01;7.63;82.20
64961;SHT31;51487;52.266;10.542;2023-11-21T13:43:26;7.69;82.36
64961;SHT31;51487;52.266;10.542;2023-11-21T13:45:54;7.69;82.31
64961;SHT31;51487;52.266;10.542;2023-11-21T13:48:38;7.57;82.61
64961;SHT31;51487;52.266;10.542;2023-11-21T13:51:09;7.55;82.89
64961;SHT31;51487;52.266;10.542;2023-11-21T13:53:47;7.53;82.56
64961;SHT31;51487;52.266;10.542;2023-11-21T13:56:15;7.52;82.90
64961;SHT31;51487;52.266;10.542;2023-11-21T13:58:45;7.56;82.68
64961;SHT31;51487;52.266;10.542;2023-11-21T14:01:25;7.57;82.93
64961;SHT31;51487;52.266;10.542;2023-11-21T14:04:02;7.45;83.10
64961;SHT31;51487;52.266;10.542;2023-11-21T14:06:49;7.49;83.33
64961;SHT31;51487;52.266;10.542;2023-11-21T14:09:23;7.40;83.82
64961;SHT31;51487;52.266;10.542;2023-11-21T14:11:58;7.50;83.80
64961;SHT31;51487;52.266;10.542;2023-11-21T14:14:27;7.38;83.72
64961;SHT31;51487;52.266;10.542;2023-11-21T14:16:55;7.39;83.74
64961;SHT31;51487;52.266;10.542;2023-11-21T14:19:21;7.28;83.85
64961;SHT31;51487;52.266;10.542;2023-11-21T14:21:50;7.26;84.15
64961;SHT31;51487;52.266;10.542;2023-11-21T14:24:16;7.22;84.81
64961;SHT31;51487;52.266;10.542;2023-11-21T14:26:45;7.25;85.02
64961;SHT31;51487;52.266;10.542;2023-11-21T14:29:12;7.11;85.26
64961;SHT31;51487;52.266;10.542;2023-11-21T14:31:40;7.01;85.38
64961;SHT31;51487;52.266;10.542;2023-11-21T14:34:07;7.05;85.80
64961;SHT31;51487;52.266;10.542;2023-11-21T14:36:34;7.11;85.19
64961;SHT31;51487;52.266;10.542;2023-11-21T14:39:01;7.07;84.53
64961;SHT31;51487;52.266;10.542;2023-11-21T14:41:26;6.99;84.70
64961;SHT31;51487;52.266;10.542;2023-11-21T14:43:54;7.01;84.65
64961;SHT31;51487;52.266;10.542;2023-11-21T14:46:22;6.88;84.61
64961;SHT31;51487;52.266;10.542;2023-11-21T14:48:48;6.84;85.16
64961;SHT31;51487;52.266;10.542;2023-11-21T14:51:33;6.73;85.27
64961;SHT31;51487;52.266;10.542;2023-11-21T14:54:16;6.73;85.66
64961;SHT31;51487;52.266;10.542;2023-11-21T14:56:51;6.77;85.23
64961;SHT31;51487;52.266;10.542;2023-11-21T14:59:18;6.76;85.28
64961;SHT31;51487;52.266;10.542;2023-11-21T15:01:43;6.73;86.11
64961;SHT31;51487;52.266;10.542;2023-11-21T15:04:22;6.80;85.16
64961;SHT31;51487;52.266;10.542;2023-11-21T15:07:05;7.05;84.54
64961;SHT31;51487;52.266;10.542;2023-11-21T15:09:31;6.83;84.52
64961;SHT31;51487;52.266;10.542;2023-11-21T15:11:58;6.80;82.85
64961;SHT31;51487;52.266;10.542;2023-11-21T15:14:30;7.35;79.98
64961;SHT31;51487;52.266;10.542;2023-11-21T15:17:01;7.02;80.45
64961;SHT31;51487;52.266;10.542;2023-11-21T15:19:28;6.77;81.35
64961;SHT31;51487;52.266;10.542;2023-11-21T15:21:54;6.66;81.37
64961;SHT31;51487;52.266;10.542;2023-11-21T15:24:20;6.47;81.38
64961;SHT31;51487;52.266;10.542;2023-11-21T15:26:45;6.40;82.28
64961;SHT31;51487;52.266;10.542;2023-11-21T15:29:11;6.25;82.53
64961;SHT31;51487;52.266;10.542;2023-11-21T15:31:38;6.29;82.11
64961;SHT31;51487;52.266;10.542;2023-11-21T15:34:05;6.22;82.41
64961;SHT31;51487;52.266;10.542;2023-11-21T15:36:31;6.19;82.78
64961;SHT31;51487;52.266;10.542;2023-11-21T15:38:57;6.09;82.69
64961;SHT31;51487;52.266;10.542;2023-11-21T15:41:22;6.09;82.60
64961;SHT31;51487;52.266;10.542;2023-11-21T15:43:48;6.19;82.25
64961;SHT31;51487;52.266;10.542;2023-11-21T15:46:15;6.15;82.67